Time;durP1;ratioP1;P1;durP2;ratioP2;P2;SDS_P1;SDS_P2;PMS_P1;PMS_P2;Temp;Humidity;BMP_temperature;BMP_pressure;BME280_temperature;BME280_humidity;BME280_pressure;Samples;Min_cycle;Max_cycle;Signal;HPM_P1;HPM_P2
2023/08/16 10:11:36;;;;;;;;;3.00;3.00;;;;;27.36;49.36;101400.44;5114910;27;45461;-66
2023/08/16 10:14:06;;;;;;;;;3.50;3.50;;;;;28.53;46.95;101404.19;5095825;27;45455;-63
2023/08/16 10:16:35;;;;;;;;;4.75;4.75;;;;;29.60;45.49;101401.16;5095957;27;45418;-60
2023/08/16 10:19:02;;;;;;;;;4.50;4.50;;;;;30.16;43.89;101395.59;5095783;27;45619;-65
2023/08/16 10:21:30;;;;;;;;;3.75;3.75;;;;;30.56;42.30;101400.00;5111450;27;48154;-65
2023/08/16 10:23:56;;;;;;;;;4.50;2.75;;;;;30.96;41.78;101402.44;5095834;27;45379;-60
2023/08/16 10:26:24;;;;;;;;;4.00;4.00;;;;;31.44;41.32;101405.78;5096404;27;45404;-67
2023/08/16 10:28:54;;;;;;;;;4.75;4.75;;;;;31.77;40.34;101411.81;5095948;27;45372;-67
2023/08/16 10:31:25;;;;;;;;;5.50;3.75;;;;;31.81;39.66;101393.78;5096000;27;48105;-70
2023/08/16 10:33:53;;;;;;;;;4.50;3.00;;;;;32.11;39.12;101400.97;5096157;27;45515;-67
2023/08/16 10:36:19;;;;;;;;;4.00;4.00;;;;;32.54;38.19;101407.47;5095726;27;45283;-69
2023/08/16 10:38:53;;;;;;;;;4.00;4.00;;;;;32.68;37.96;101409.31;5095984;27;45369;-71
2023/08/16 10:41:19;;;;;;;;;2.75;2.75;;;;;32.79;37.51;101398.75;5095317;27;45625;-63
2023/08/16 10:43:49;;;;;;;;;4.00;3.00;;;;;33.02;37.65;101394.69;5094876;27;45509;-60
2023/08/16 10:46:35;;;;;;;;;4.00;4.00;;;;;33.27;36.74;101403.44;5096669;27;45238;-60
2023/08/16 10:49:03;;;;;;;;;3.25;3.00;;;;;33.26;36.82;101412.03;5096556;27;45564;-61
2023/08/16 10:51:30;;;;;;;;;5.00;3.25;;;;;33.35;36.55;101397.72;5095301;27;47228;-59
2023/08/16 10:53:58;;;;;;;;;3.00;3.00;;;;;33.48;36.54;101402.53;5093008;27;45530;-61
2023/08/16 10:56:24;;;;;;;;;3.00;3.00;;;;;33.69;36.47;101398.78;5095358;27;45325;-58
2023/08/16 10:58:51;;;;;;;;;2.33;2.33;;;;;33.65;35.42;101403.91;5095639;27;45469;-61
2023/08/16 11:01:18;;;;;;;;;4.00;2.67;;;;;33.72;35.86;101396.47;5095439;27;45357;-60
2023/08/16 11:03:43;;;;;;;;;6.00;2.67;;;;;33.74;36.13;101382.38;5095687;27;45440;-62
2023/08/16 11:06:14;;;;;;;;;4.00;4.00;;;;;33.83;36.08;101386.72;5095304;27;45367;-62
2023/08/16 11:08:45;;;;;;;;;2.25;2.25;;;;;33.91;35.92;101380.09;5095510;27;45248;-61
2023/08/16 11:11:12;;;;;;;;;3.50;3.50;;;;;33.98;35.39;101387.41;5095214;27;45512;-61
2023/08/16 11:13:42;;;;;;;;;3.00;3.00;;;;;33.92;34.94;101392.97;5095265;27;45315;-61
2023/08/16 11:16:09;;;;;;;;;1.00;1.00;;;;;33.85;34.61;101387.38;5093765;27;45255;-61
2023/08/16 11:18:36;;;;;;;;;2.00;2.00;;;;;33.92;34.09;101384.63;5095312;27;45562;-60
2023/08/16 11:21:03;;;;;;;;;1.00;1.00;;;;;33.91;34.14;101367.06;5091752;27;46575;-61
2023/08/16 11:23:39;;;;;;;;;1.00;1.00;;;;;34.05;33.63;101371.59;5097852;27;45473;-61
2023/08/16 11:26:06;;;;;;;;;1.00;1.00;;;;;34.08;33.06;101379.53;5081546;27;45368;-61
2023/08/16 11:28:33;;;;;;;;;2.67;2.67;;;;;34.09;33.38;101364.56;5081536;28;45406;-61
2023/08/16 11:31:03;;;;;;;;;2.00;2.00;;;;;34.23;33.02;101371.00;5081452;27;45393;-62
2023/08/16 11:33:32;;;;;;;;;2.33;1.00;;;;;34.20;32.96;101360.28;5078756;28;45358;-61
2023/08/16 11:36:04;;;;;;;;;1.67;1.67;;;;;34.33;32.61;101356.72;5079035;28;45510;-61
2023/08/16 11:38:29;;;;;;;;;1.67;1.67;;;;;34.37;32.65;101350.50;5081089;27;45305;-62
2023/08/16 11:40:55;;;;;;;;;1.67;1.67;;;;;34.43;32.37;101357.16;5080906;27;45361;-61
2023/08/16 11:43:32;;;;;;;;;1.33;1.33;;;;;34.45;32.70;101349.47;5081211;28;45281;-62
2023/08/16 11:45:59;;;;;;;;;1.00;1.00;;;;;34.52;32.09;101353.13;5081449;28;45333;-61
2023/08/16 11:48:25;;;;;;;;;1.33;1.33;;;;;34.49;32.45;101351.59;5080958;28;45437;-62
2023/08/16 11:50:51;;;;;;;;;1.00;1.00;;;;;34.54;32.47;101356.53;5080911;28;45400;-61
2023/08/16 11:53:17;;;;;;;;;1.33;1.33;;;;;34.64;32.28;101353.31;5080854;28;45311;-62
2023/08/16 11:55:42;;;;;;;;;2.75;2.00;;;;;34.64;32.06;101365.31;5080248;27;45393;-62
2023/08/16 11:58:12;;;;;;;;;2.00;2.00;;;;;34.66;32.27;101352.03;5068352;27;45509;-61
2023/08/16 12:00:38;;;;;;;;;2.00;2.00;;;;;34.73;31.86;101358.50;5081110;27;45552;-61
2023/08/16 12:03:05;;;;;;;;;1.00;1.00;;;;;34.80;32.02;101361.28;5080418;27;45426;-61
2023/08/16 12:05:38;;;;;;;;;3.00;2.00;;;;;34.80;32.06;101364.06;5079747;28;45444;-61
2023/08/16 12:08:05;;;;;;;;;1.00;1.00;;;;;34.81;31.36;101363.00;5080143;28;45327;-61
2023/08/16 12:10:33;;;;;;;;;1.67;1.67;;;;;34.96;31.35;101360.88;5080286;28;45470;-61
2023/08/16 12:13:09;;;;;;;;;1.67;1.67;;;;;35.06;31.45;101363.19;5080428;27;45296;-61
2023/08/16 12:15:34;;;;;;;;;1.00;1.00;;;;;35.17;31.99;101371.78;5080430;28;45431;-60
2023/08/16 12:18:00;;;;;;;;;1.33;1.33;;;;;35.16;32.05;101358.03;5080494;28;45316;-61
2023/08/16 12:20:26;;;;;;;;;4.00;2.00;;;;;35.16;31.80;101360.84;5079068;28;46028;-61
2023/08/16 12:22:52;;;;;;;;;3.00;1.67;;;;;35.21;32.18;101355.47;5061235;28;45801;-60
2023/08/16 12:25:18;;;;;;;;;3.00;1.00;;;;;35.27;31.87;101361.06;5071564;28;45325;-61
2023/08/16 12:27:43;;;;;;;;;3.67;2.00;;;;;35.39;31.28;101358.44;5079602;28;45408;-63
2023/08/16 12:30:09;;;;;;;;;2.25;2.25;;;;;35.46;31.21;101350.09;5080275;28;46513;-61
2023/08/16 12:32:35;;;;;;;;;2.00;2.00;;;;;35.51;31.23;101355.84;5079605;27;45347;-61
2023/08/16 12:35:00;;;;;;;;;2.00;2.00;;;;;35.54;31.31;101349.84;5077871;28;45383;-61
2023/08/16 12:37:25;;;;;;;;;2.00;2.00;;;;;35.62;31.27;101341.25;5079471;28;56741;-62
2023/08/16 12:39:50;;;;;;;;;1.67;1.67;;;;;35.62;31.38;101325.34;5080306;28;46104;-62
2023/08/16 12:42:16;;;;;;;;;2.00;2.00;;;;;35.85;30.92;101343.53;5079077;27;55647;-61
2023/08/16 12:44:41;;;;;;;;;2.50;2.50;;;;;35.89;31.21;101336.44;5079725;28;54784;-62
2023/08/16 12:47:06;;;;;;;;;4.33;3.00;;;;;35.98;31.27;101340.69;5079884;28;51701;-61
2023/08/16 12:49:32;;;;;;;;;1.00;1.00;;;;;36.01;31.08;101332.69;5079410;28;52768;-62
2023/08/16 12:51:57;;;;;;;;;1.75;1.75;;;;;35.96;30.76;101329.72;5079124;28;61357;-61
2023/08/16 12:54:22;;;;;;;;;2.00;2.00;;;;;36.03;30.85;101329.69;5080161;28;48218;-61
2023/08/16 12:56:47;;;;;;;;;3.25;2.50;;;;;36.06;30.43;101328.41;5079944;28;45449;-60
2023/08/16 12:59:13;;;;;;;;;2.00;2.00;;;;;36.14;30.28;101334.56;5079982;28;46880;-61
2023/08/16 13:01:38;;;;;;;;;3.25;3.25;;;;;36.22;30.33;101336.28;5079209;28;58451;-61
2023/08/16 13:04:04;;;;;;;;;4.00;2.00;;;;;36.26;30.28;101334.72;5080350;28;45341;-61
2023/08/16 13:06:29;;;;;;;;;2.50;2.50;;;;;36.31;29.87;101316.25;5079510;28;45698;-61
2023/08/16 13:08:55;;;;;;;;;1.67;1.67;;;;;36.44;30.11;101334.81;5079836;28;46267;-61
2023/08/16 13:11:20;;;;;;;;;2.33;2.33;;;;;36.44;29.95;101331.16;5079422;28;45269;-60
2023/08/16 13:13:46;;;;;;;;;2.00;2.00;;;;;36.51;30.15;101331.97;5078515;27;45345;-61
2023/08/16 13:16:11;;;;;;;;;2.50;2.50;;;;;36.43;29.55;101327.53;5077671;28;45617;-61
2023/08/16 13:18:37;;;;;;;;;2.00;1.00;;;;;36.50;29.89;101330.25;5079064;27;45295;-62
2023/08/16 13:21:03;;;;;;;;;2.00;2.00;;;;;36.57;29.47;101320.78;5078629;28;45350;-61
2023/08/16 13:23:29;;;;;;;;;1.00;1.00;;;;;36.63;29.53;101325.44;5079712;28;45337;-60
2023/08/16 13:25:54;;;;;;;;;1.33;1.33;;;;;36.75;29.65;101328.34;5079353;28;45498;-60
2023/08/16 13:28:19;;;;;;;;;2.33;2.33;;;;;36.73;29.10;101325.81;5079715;28;46420;-61
2023/08/16 13:30:47;;;;;;;;;2.00;2.00;;;;;36.94;28.82;101323.69;5079226;28;45364;-60
2023/08/16 13:33:13;;;;;;;;;1.33;1.33;;;;;37.15;28.72;101325.22;5079567;28;45366;-61
2023/08/16 13:35:45;;;;;;;;;3.00;2.00;;;;;37.20;28.66;101323.44;5078283;28;45390;-61
2023/08/16 13:38:12;;;;;;;;;3.00;3.00;;;;;37.19;28.47;101323.66;5079502;28;45333;-62
2023/08/16 13:40:38;;;;;;;;;2.67;2.33;;;;;37.16;28.84;101324.16;5079198;27;45349;-61
2023/08/16 13:43:04;;;;;;;;;4.00;2.00;;;;;37.31;29.22;101317.09;5079514;27;45385;-60
2023/08/16 13:45:29;;;;;;;;;2.33;1.33;;;;;37.35;29.21;101309.94;5078637;28;45502;-59
2023/08/16 13:47:55;;;;;;;;;1.00;1.00;;;;;37.64;28.12;101311.13;5079204;28;50011;-60
2023/08/16 13:50:21;;;;;;;;;1.33;1.33;;;;;37.83;27.26;101317.56;5078668;28;45291;-61
2023/08/16 13:52:46;;;;;;;;;4.00;2.00;;;;;38.00;27.34;101309.34;5080019;27;45411;-61
2023/08/16 13:55:14;;;;;;;;;2.33;2.33;;;;;37.93;27.25;101319.78;5079096;27;45324;-62
2023/08/16 13:57:39;;;;;;;;;4.00;2.00;;;;;37.93;27.27;101311.38;5078974;27;45411;-62
2023/08/16 14:00:07;;;;;;;;;4.00;3.00;;;;;38.06;27.13;101320.47;5078702;27;45419;-61
2023/08/16 14:02:33;;;;;;;;;2.00;2.00;;;;;38.01;27.64;101311.91;5079228;27;45456;-62
2023/08/16 14:04:58;;;;;;;;;3.33;3.33;;;;;38.07;28.09;101312.94;5078770;28;45384;-61
2023/08/16 14:07:24;;;;;;;;;3.00;3.00;;;;;37.96;28.05;101314.56;5078742;28;45243;-61
2023/08/16 14:09:51;;;;;;;;;2.00;2.00;;;;;37.93;27.86;101317.00;5078562;28;45427;-61
2023/08/16 14:12:17;;;;;;;;;2.00;2.00;;;;;37.75;27.60;101313.13;5079116;28;45284;-61
2023/08/16 14:14:42;;;;;;;;;2.00;2.00;;;;;37.85;27.83;101310.63;5078282;28;45499;-61
2023/08/16 14:17:07;;;;;;;;;3.00;3.00;;;;;38.08;27.46;101300.66;5070627;27;45254;-61
2023/08/16 14:19:33;;;;;;;;;2.00;2.00;;;;;38.24;27.53;101298.00;5080268;27;60178;-61
2023/08/16 14:21:58;;;;;;;;;3.00;3.00;;;;;38.64;27.40;101291.78;5078729;28;45248;-61
2023/08/16 14:24:24;;;;;;;;;2.33;2.33;;;;;38.88;27.34;101301.91;5078429;28;45410;-62
2023/08/16 14:26:49;;;;;;;;;2.00;2.00;;;;;39.16;26.70;101309.59;5078490;28;46176;-60
2023/08/16 14:29:15;;;;;;;;;2.00;2.00;;;;;39.12;25.80;101307.56;5078488;28;45449;-61
2023/08/16 14:31:40;;;;;;;;;2.75;2.75;;;;;39.00;26.34;101307.56;5078710;28;45565;-61
2023/08/16 14:34:06;;;;;;;;;1.00;1.00;;;;;38.98;26.38;101313.41;5078072;28;47985;-63
2023/08/16 14:36:31;;;;;;;;;3.00;2.00;;;;;38.88;26.50;101299.09;5078469;28;45919;-61
2023/08/16 14:38:56;;;;;;;;;2.33;2.33;;;;;39.20;26.59;101310.00;5078130;28;51485;-62
2023/08/16 14:41:22;;;;;;;;;1.33;1.33;;;;;39.22;25.99;101302.16;5078498;28;50746;-61
2023/08/16 14:43:47;;;;;;;;;2.67;2.67;;;;;39.34;26.26;101303.84;5078433;28;45494;-61
2023/08/16 14:46:12;;;;;;;;;4.67;3.00;;;;;39.30;25.50;101304.63;5078622;28;45416;-62
2023/08/16 14:48:38;;;;;;;;;3.33;3.33;;;;;39.29;26.16;101305.72;5078183;28;45262;-62
2023/08/16 14:51:03;;;;;;;;;3.00;3.00;;;;;39.22;25.39;101307.75;5078429;28;45658;-62
2023/08/16 14:53:28;;;;;;;;;3.67;2.00;;;;;39.09;25.83;101316.44;5078113;28;45276;-62
2023/08/16 14:55:54;;;;;;;;;3.75;2.00;;;;;38.86;26.72;101314.47;5077839;28;57725;-62
2023/08/16 14:58:19;;;;;;;;;2.00;2.00;;;;;38.64;26.93;101300.19;5081077;28;55251;-62
2023/08/16 15:00:45;;;;;;;;;2.00;2.00;;;;;38.44;27.09;101310.84;5081738;27;45484;-62
2023/08/16 15:03:10;;;;;;;;;4.00;2.75;;;;;38.19;27.92;101311.03;5081617;28;45210;-62
2023/08/16 15:05:35;;;;;;;;;3.00;2.00;;;;;38.04;27.61;101311.41;5081127;28;45268;-61
2023/08/16 15:08:01;;;;;;;;;2.00;2.00;;;;;37.83;28.50;101312.81;5081454;28;45245;-61
2023/08/16 15:10:26;;;;;;;;;2.67;2.67;;;;;37.78;27.95;101317.38;5075475;27;45287;-61
2023/08/16 15:12:52;;;;;;;;;2.00;2.00;;;;;37.79;28.16;101317.16;5080908;28;45295;-62
2023/08/16 15:15:17;;;;;;;;;3.75;2.00;;;;;37.94;28.27;101315.91;5080737;27;46623;-61
2023/08/16 15:17:42;;;;;;;;;3.00;3.00;;;;;38.15;27.54;101318.19;5081565;28;45331;-61
2023/08/16 15:20:11;;;;;;;;;2.67;2.67;;;;;38.13;28.01;101303.56;5081063;27;45287;-61
2023/08/16 15:22:37;;;;;;;;;2.00;2.00;;;;;38.33;27.01;101306.94;5081113;27;45429;-62
2023/08/16 15:25:02;;;;;;;;;2.33;2.33;;;;;38.93;27.16;101304.00;5079897;28;48135;-62
2023/08/16 15:27:28;;;;;;;;;3.00;3.00;;;;;39.39;26.04;101293.91;5081332;28;45318;-60
2023/08/16 15:29:53;;;;;;;;;2.50;2.50;;;;;39.95;25.98;101293.13;5080944;28;54325;-62
2023/08/16 15:32:18;;;;;;;;;1.33;1.33;;;;;40.60;25.14;101299.09;5080869;28;45553;-60
2023/08/16 15:34:44;;;;;;;;;0.67;0.67;;;;;41.13;23.97;101286.50;5076489;28;47553;-59
2023/08/16 15:37:10;;;;;;;;;3.00;3.00;;;;;41.41;23.03;101282.66;5077175;28;45317;-61
2023/08/16 15:39:35;;;;;;;;;2.67;2.67;;;;;41.87;23.29;101290.56;5079991;28;45588;-61
2023/08/16 15:42:01;;;;;;;;;4.67;2.00;;;;;42.32;23.18;101282.88;5080234;27;45531;-61
2023/08/16 15:44:26;;;;;;;;;3.00;3.00;;;;;42.67;22.29;101288.84;5081586;27;46111;-61
2023/08/16 15:46:52;;;;;;;;;2.00;2.00;;;;;42.97;21.83;101280.63;5081915;27;45185;-62
2023/08/16 15:49:17;;;;;;;;;2.67;2.33;;;;;43.15;22.43;101270.88;5080536;27;45180;-59
2023/08/16 15:51:42;;;;;;;;;2.00;2.00;;;;;43.34;21.59;101279.75;5080601;27;45330;-59
2023/08/16 15:54:08;;;;;;;;;3.33;2.67;;;;;43.19;22.30;101263.59;5079222;28;49771;-60
2023/08/16 15:56:33;;;;;;;;;3.67;3.00;;;;;43.01;22.70;101275.28;5074457;28;45448;-60
2023/08/16 15:58:59;;;;;;;;;3.33;3.00;;;;;42.75;22.21;101277.09;5081144;28;45341;-61
2023/08/16 16:01:24;;;;;;;;;3.00;3.00;;;;;42.40;22.89;101272.00;5080065;27;45461;-59
2023/08/16 16:03:50;;;;;;;;;3.00;3.00;;;;;42.32;23.27;101272.47;5080260;27;45337;-61
2023/08/16 16:06:15;;;;;;;;;2.00;2.00;;;;;42.24;23.14;101256.88;5078637;28;45261;-61
2023/08/16 16:08:41;;;;;;;;;5.50;3.00;;;;;42.00;23.38;101275.25;5079395;27;45605;-60
2023/08/16 16:11:06;;;;;;;;;2.33;2.33;;;;;41.69;23.38;101270.34;5078591;28;45444;-60
2023/08/16 16:13:32;;;;;;;;;1.33;1.33;;;;;41.60;23.58;101263.50;5096324;27;47662;-61
2023/08/16 16:15:57;;;;;;;;;1.67;1.67;;;;;41.73;23.80;101263.94;5079149;28;45524;-59
2023/08/16 16:18:23;;;;;;;;;2.33;2.33;;;;;41.92;23.64;101262.47;5083029;27;45492;-61
2023/08/16 16:20:49;;;;;;;;;3.00;3.00;;;;;42.19;23.01;101262.50;5076174;28;45396;-61
2023/08/16 16:23:15;;;;;;;;;2.67;2.67;;;;;42.19;23.37;101264.47;5096093;27;47230;-60
2023/08/16 16:25:40;;;;;;;;;4.00;4.00;;;;;41.96;23.47;101256.31;5080651;28;45233;-62
2023/08/16 16:28:06;;;;;;;;;2.00;2.00;;;;;41.70;23.35;101257.97;5077883;28;45444;-61
2023/08/16 16:30:32;;;;;;;;;4.33;3.00;;;;;41.38;23.97;101255.03;5079754;27;45225;-60
2023/08/16 16:32:57;;;;;;;;;4.25;3.00;;;;;41.30;23.53;101256.34;5080555;28;45505;-63
2023/08/16 16:35:25;;;;;;;;;3.67;3.00;;;;;41.31;24.18;101243.13;5079429;27;45296;-63
2023/08/16 16:37:51;;;;;;;;;5.00;4.33;;;;;41.40;24.10;101250.00;5080410;28;45508;-63
2023/08/16 16:40:17;;;;;;;;;6.75;2.25;;;;;41.35;24.45;101242.31;5080122;27;45510;-60
2023/08/16 16:42:43;;;;;;;;;3.50;2.75;;;;;41.31;24.52;101243.97;5080312;28;48609;-62
2023/08/16 16:45:10;;;;;;;;;5.00;3.25;;;;;41.16;24.54;101236.19;5080498;28;45412;-61
2023/08/16 16:47:35;;;;;;;;;2.75;2.75;;;;;41.14;24.36;101241.22;5079828;28;45366;-59
2023/08/16 16:50:01;;;;;;;;;5.25;3.50;;;;;41.10;24.72;101240.03;5079993;27;45255;-61
2023/08/16 16:52:26;;;;;;;;;3.00;3.00;;;;;41.11;24.32;101240.88;5079851;27;45536;-61
2023/08/16 16:54:52;;;;;;;;;2.00;2.00;;;;;40.99;24.46;101237.31;5079505;27;45282;-69
2023/08/16 16:57:18;;;;;;;;;3.25;2.00;;;;;40.81;24.78;101230.88;5079595;27;45533;-71
2023/08/16 16:59:43;;;;;;;;;3.33;3.33;;;;;40.87;24.92;101239.38;5074693;28;46519;-60
2023/08/16 17:02:09;;;;;;;;;5.00;5.00;;;;;40.82;24.62;101234.53;5079593;28;46079;-60
2023/08/16 17:04:34;;;;;;;;;3.50;2.50;;;;;40.80;24.75;101237.59;5079903;28;45358;-58
2023/08/16 17:07:00;;;;;;;;;4.00;4.00;;;;;40.63;24.91;101230.28;5069454;28;45518;-60
2023/08/16 17:09:26;;;;;;;;;9.50;5.00;;;;;40.54;25.14;101229.00;5059015;28;45327;-60
2023/08/16 17:11:52;;;;;;;;;3.25;3.25;;;;;40.30;25.23;101236.75;5067012;28;45357;-62
2023/08/16 17:14:17;;;;;;;;;4.00;4.00;;;;;39.94;25.71;101218.38;5079546;27;45319;-61
2023/08/16 17:16:44;;;;;;;;;4.00;4.00;;;;;39.94;25.97;101236.09;5079755;28;45414;-63
2023/08/16 17:19:09;;;;;;;;;6.25;5.25;;;;;39.87;26.38;101232.59;5078147;28;45433;-62
2023/08/16 17:21:35;;;;;;;;;7.50;5.00;;;;;39.75;25.86;101236.50;5078625;28;58233;-55
2023/08/16 17:24:00;;;;;;;;;5.00;4.00;;;;;39.50;26.84;101226.50;5077749;28;45192;-59
2023/08/16 17:26:25;;;;;;;;;6.00;5.00;;;;;39.40;27.08;101237.50;5079233;28;45353;-60
2023/08/16 17:28:51;;;;;;;;;5.00;5.00;;;;;39.16;27.16;101230.22;5078728;28;54520;-60
2023/08/16 17:31:16;;;;;;;;;4.00;4.00;;;;;39.01;27.30;101239.16;5078794;28;51903;-63
2023/08/16 17:33:41;;;;;;;;;3.75;3.75;;;;;38.87;27.31;101230.13;5077518;28;45350;-66
2023/08/16 17:36:15;;;;;;;;;4.00;4.00;;;;;38.70;27.82;101237.56;5079030;28;45298;-63
2023/08/16 17:38:44;;;;;;;;;4.00;4.00;;;;;38.59;27.71;101235.63;5079625;28;45468;-60
2023/08/16 17:41:13;;;;;;;;;6.00;5.00;;;;;38.50;27.96;101242.63;5079235;28;45461;-55
2023/08/16 17:43:38;;;;;;;;;5.50;5.50;;;;;38.29;28.08;101237.59;5079643;28;45431;-62
2023/08/16 17:46:03;;;;;;;;;5.00;5.00;;;;;38.08;28.09;101237.09;5079234;28;50482;-66
2023/08/16 17:48:29;;;;;;;;;4.75;4.75;;;;;37.90;28.50;101227.88;5079454;28;45554;-63
2023/08/16 17:50:54;;;;;;;;;5.25;5.00;;;;;37.86;28.64;101245.13;5079175;28;46301;-57
2023/08/16 17:53:22;;;;;;;;;3.00;3.00;;;;;37.67;28.70;101240.69;5079483;28;45439;-64
2023/08/16 17:55:48;;;;;;;;;6.00;4.25;;;;;37.53;28.96;101241.06;5079519;28;45247;-58
2023/08/16 17:58:14;;;;;;;;;4.00;4.00;;;;;37.48;29.54;101252.97;5079180;28;45333;-59
2023/08/16 18:00:40;;;;;;;;;3.25;3.25;;;;;37.32;29.29;101248.03;5079237;28;46553;-61
2023/08/16 18:03:06;;;;;;;;;3.00;3.00;;;;;37.26;29.61;101248.97;5078690;28;45504;-59
2023/08/16 18:05:31;;;;;;;;;5.50;5.25;;;;;37.20;29.51;101253.53;5079248;28;45305;-60
2023/08/16 18:07:57;;;;;;;;;6.25;5.00;;;;;37.14;29.78;101257.28;5078849;28;45256;-60
2023/08/16 18:10:22;;;;;;;;;5.00;5.00;;;;;37.12;29.15;101246.28;5078829;28;45341;-59
2023/08/16 18:12:48;;;;;;;;;4.75;4.75;;;;;36.97;29.72;101253.34;5078583;28;45480;-59
2023/08/16 18:15:13;;;;;;;;;6.00;4.75;;;;;36.85;30.09;101255.19;5078973;28;45366;-58
2023/08/16 18:17:39;;;;;;;;;5.00;5.00;;;;;36.88;29.62;101263.97;5078799;28;45634;-59
2023/08/16 18:20:05;;;;;;;;;5.00;5.00;;;;;36.86;30.04;101260.53;5078612;27;45615;-60
2023/08/16 18:22:31;;;;;;;;;4.00;4.00;;;;;36.79;29.77;101265.34;5094613;27;45361;-59
2023/08/16 18:24:57;;;;;;;;;4.00;4.00;;;;;36.77;29.83;101261.91;5089091;27;45292;-59
2023/08/16 18:27:22;;;;;;;;;3.50;3.50;;;;;36.87;29.36;101269.78;5078766;28;45365;-61
2023/08/16 18:29:48;;;;;;;;;3.75;3.75;;;;;36.79;29.54;101265.34;5078885;28;45240;-58
2023/08/16 18:32:13;;;;;;;;;3.00;3.00;;;;;36.80;29.70;101271.78;5080782;27;45284;-61
2023/08/16 18:34:38;;;;;;;;;3.00;3.00;;;;;36.75;29.92;101252.91;5080534;27;52923;-59
2023/08/16 18:37:03;;;;;;;;;5.00;5.00;;;;;36.78;29.92;101262.78;5082031;27;45516;-60
2023/08/16 18:39:29;;;;;;;;;6.00;4.25;;;;;36.68;29.38;101252.13;5082382;27;45330;-59
2023/08/16 18:41:54;;;;;;;;;4.00;4.00;;;;;36.64;29.75;101259.25;5081875;28;57511;-60
2023/08/16 18:44:21;;;;;;;;;3.75;3.75;;;;;36.58;29.90;101255.41;5081901;28;51026;-59
2023/08/16 18:46:46;;;;;;;;;6.00;6.00;;;;;36.49;30.13;101259.59;5081529;28;46411;-60
2023/08/16 18:49:13;;;;;;;;;8.00;6.00;;;;;36.39;30.16;101270.41;5081162;27;46039;-60
2023/08/16 18:51:38;;;;;;;;;5.50;5.50;;;;;36.35;30.05;101256.03;5081658;28;45439;-66
2023/08/16 18:54:03;;;;;;;;;6.00;6.00;;;;;36.31;30.15;101267.91;5080799;28;45361;-60
2023/08/16 18:56:29;;;;;;;;;4.25;4.25;;;;;36.18;30.29;101267.97;5081989;27;45462;-62
2023/08/16 18:58:54;;;;;;;;;5.75;5.75;;;;;36.20;29.91;101268.63;5080925;28;50691;-61
2023/08/16 19:01:19;;;;;;;;;4.50;3.50;;;;;36.17;30.26;101272.69;5081436;28;46196;-62
2023/08/16 19:03:45;;;;;;;;;4.25;4.25;;;;;36.09;30.25;101264.59;5082339;28;45291;-62
2023/08/16 19:06:10;;;;;;;;;4.00;4.00;;;;;35.93;30.52;101268.78;5080039;28;45354;-60
2023/08/16 19:08:35;;;;;;;;;5.50;4.50;;;;;35.70;30.90;101273.16;5078611;27;46067;-60
2023/08/16 19:11:01;;;;;;;;;8.50;8.50;;;;;35.70;31.30;101273.16;5081119;28;45309;-60
2023/08/16 19:13:26;;;;;;;;;5.00;5.00;;;;;35.74;30.79;101286.47;5081519;27;45386;-57
2023/08/16 19:15:51;;;;;;;;;4.00;4.00;;;;;35.64;31.17;101288.88;5080039;28;53316;-60
2023/08/16 19:18:17;;;;;;;;;7.50;5.00;;;;;35.61;31.10;101292.09;5081057;28;45262;-61
2023/08/16 19:20:42;;;;;;;;;5.25;4.00;;;;;35.53;31.57;101293.22;5080494;28;45219;-60
2023/08/16 19:23:08;;;;;;;;;5.25;4.00;;;;;35.57;31.50;101299.19;5081430;28;45477;-57
2023/08/16 19:25:33;;;;;;;;;4.00;4.00;;;;;35.54;31.84;101297.72;5080212;28;46304;-59
2023/08/16 19:27:59;;;;;;;;;4.00;4.00;;;;;35.45;31.82;101284.22;5081325;28;45227;-59
2023/08/16 19:30:24;;;;;;;;;4.25;4.25;;;;;35.47;32.07;101298.81;5081453;28;45346;-60
2023/08/16 19:32:49;;;;;;;;;8.00;6.25;;;;;35.42;32.09;101306.97;5081083;27;52903;-59
2023/08/16 19:35:15;;;;;;;;;5.00;5.00;;;;;35.45;32.18;101309.34;5080677;28;45429;-59
2023/08/16 19:37:41;;;;;;;;;4.75;4.75;;;;;35.33;32.20;101298.00;5081431;27;46128;-59
2023/08/16 19:40:07;;;;;;;;;5.50;4.50;;;;;35.24;31.82;101302.09;5081292;27;45408;-62
2023/08/16 19:42:33;;;;;;;;;5.50;5.50;;;;;35.21;32.36;101299.72;5080830;27;45462;-61
2023/08/16 19:44:59;;;;;;;;;5.00;5.00;;;;;35.15;32.18;101295.00;5080926;27;45377;-59
2023/08/16 19:47:25;;;;;;;;;6.75;5.50;;;;;35.12;32.02;101301.03;5080427;27;45269;-59
2023/08/16 19:49:50;;;;;;;;;4.75;4.75;;;;;35.04;32.97;101312.41;5080795;28;45344;-55
2023/08/16 19:52:15;;;;;;;;;7.75;5.00;;;;;35.03;32.99;101317.13;5080855;28;45456;-51
2023/08/16 19:54:41;;;;;;;;;7.25;6.25;;;;;35.04;33.08;101329.13;5080572;28;45582;-58
2023/08/16 19:57:06;;;;;;;;;6.00;6.00;;;;;35.05;33.40;101325.28;5080434;27;46205;-67
2023/08/16 19:59:31;;;;;;;;;6.75;6.75;;;;;34.97;33.12;101323.53;5080505;28;45374;-61
2023/08/16 20:01:57;;;;;;;;;6.00;5.50;;;;;34.95;33.06;101319.28;5080714;28;46921;-52
2023/08/16 20:04:22;;;;;;;;;7.00;7.00;;;;;34.95;33.03;101316.50;5080519;27;51934;-54
2023/08/16 20:06:47;;;;;;;;;9.25;7.00;;;;;34.92;33.35;101313.06;5079683;28;48068;-49
2023/08/16 20:09:13;;;;;;;;;9.00;7.00;;;;;34.94;33.25;101317.56;5080373;28;45457;-52
2023/08/16 20:11:39;;;;;;;;;6.00;6.00;;;;;34.96;33.22;101315.44;5070148;28;45456;-53
2023/08/16 20:14:04;;;;;;;;;6.50;6.50;;;;;34.79;33.45;101312.22;5080220;28;45586;-53
2023/08/16 20:16:30;;;;;;;;;7.50;7.50;;;;;34.73;33.82;101316.72;5080334;28;46269;-51
2023/08/16 20:18:56;;;;;;;;;7.25;7.25;;;;;34.67;33.69;101306.41;5080662;28;45338;-54
2023/08/16 20:21:22;;;;;;;;;6.50;6.50;;;;;34.70;33.66;101313.50;5080342;28;45377;-54
2023/08/16 20:23:47;;;;;;;;;9.00;9.00;;;;;34.63;33.74;101318.19;5069601;28;45396;-51
2023/08/16 20:26:12;;;;;;;;;9.00;9.00;;;;;34.67;33.63;101320.34;5079801;28;45489;-52
2023/08/16 20:28:37;;;;;;;;;7.75;7.75;;;;;34.62;33.88;101320.13;5080042;28;45476;-54
2023/08/16 20:31:03;;;;;;;;;9.50;9.50;;;;;34.62;33.66;101314.56;5079812;28;45493;-54
2023/08/16 20:33:28;;;;;;;;;10.75;10.50;;;;;34.46;33.49;101301.03;5079275;28;45423;-51
2023/08/16 20:35:55;;;;;;;;;7.00;7.00;;;;;34.56;33.89;101318.19;5076579;28;50535;-52
2023/08/16 20:38:20;;;;;;;;;9.75;8.75;;;;;34.62;33.95;101310.91;5079984;28;45227;-54
2023/08/16 20:40:46;;;;;;;;;9.00;9.00;;;;;34.54;33.87;101317.53;5080106;28;45398;-54
2023/08/16 20:43:11;;;;;;;;;8.50;8.50;;;;;34.55;34.36;101320.09;5079166;27;45554;-51
2023/08/16 20:45:37;;;;;;;;;8.25;8.25;;;;;34.49;34.15;101320.97;5078945;28;46194;-53
2023/08/16 20:48:03;;;;;;;;;8.50;8.25;;;;;34.38;34.03;101323.53;5078339;28;45805;-51
2023/08/16 20:50:28;;;;;;;;;10.75;10.75;;;;;34.40;34.03;101324.16;5079200;28;45329;-51
2023/08/16 20:52:54;;;;;;;;;9.25;9.25;;;;;34.38;34.32;101320.72;5077604;28;45430;-55
2023/08/16 20:55:19;;;;;;;;;12.50;9.75;;;;;34.33;34.06;101310.25;5072947;27;46083;-50
2023/08/16 20:57:44;;;;;;;;;10.00;10.00;;;;;34.33;34.23;101313.03;5073332;28;45627;-54
2023/08/16 21:00:11;;;;;;;;;11.75;11.75;;;;;34.37;34.31;101316.22;5079555;28;45875;-53
2023/08/16 21:02:37;;;;;;;;;8.25;8.25;;;;;34.28;34.34;101311.97;5079904;28;45410;-54
2023/08/16 21:05:03;;;;;;;;;10.25;10.25;;;;;34.18;34.36;101313.19;5078663;28;45459;-51
2023/08/16 21:07:28;;;;;;;;;10.50;10.50;;;;;34.11;34.73;101308.69;5075443;28;45329;-52
2023/08/16 21:09:54;;;;;;;;;11.50;11.00;;;;;34.13;34.37;101312.97;5075096;28;45387;-54
2023/08/16 21:12:19;;;;;;;;;11.50;9.50;;;;;34.08;34.43;101309.09;5079721;27;45530;-53
2023/08/16 21:14:46;;;;;;;;;13.75;10.75;;;;;34.10;34.31;101318.09;5079085;28;45978;-53
2023/08/16 21:17:12;;;;;;;;;11.75;11.75;;;;;34.05;34.57;101309.50;5077104;28;45188;-51
2023/08/16 21:19:38;;;;;;;;;9.75;9.00;;;;;34.05;34.47;101310.38;5079202;27;45359;-53
2023/08/16 21:22:03;;;;;;;;;11.75;11.75;;;;;34.04;34.89;101311.44;5070361;27;45473;-51
2023/08/16 21:24:29;;;;;;;;;10.75;10.00;;;;;33.95;34.57;101309.91;5074628;28;45389;-52
2023/08/16 21:26:55;;;;;;;;;12.00;12.00;;;;;33.94;34.46;101308.19;5080157;27;45330;-53
2023/08/16 21:29:20;;;;;;;;;9.75;9.75;;;;;33.99;34.06;101307.59;5079509;28;45863;-54